Station History

Weather Underground - logo

Station Historical Data
Daily Summary for November 27, 2017 Units:  English    Metric   Both
« Previous Day
Next Day »
Daily Weekly Monthly Yearly Custom
  High: Low: Average:
Temperature: 63.5 °F 43.7 °F 55.1 °F
Dew Point: 58.1 °F 41.1 °F 47.9 °F
Humidity: 95 % 56 % 78 %
Wind Speed: 10.4 mph 0.0 mph 2.4 mph
Wind Gust: 10.4 mph - -
Wind:- - West
Pressure: 30.15 in 29.90 in -
Precipitation: 0.11 in    
Historical Graphs
 
 
Tabular Data for November 27, 2017
Time Temperature Dew Point Pressure Wind Wind Speed Wind Gust Humidity Rainfall Rate (Hourly)
00:00 63.5 °F 53.9 °F 29.92 in SE 1.2 mph 1.2 mph 71 % 0.00 in
00:05 63.4 °F 53.8 °F 29.93 in South 1.2 mph   71 % 0.00 in
00:10 63.3 °F 53.7 °F 29.92 in Calm     71 % 0.00 in
00:15 63.4 °F 53.4 °F 29.92 in NNW 1.2 mph   70 % 0.00 in
00:20 63.4 °F 53.4 °F 29.91 in ESE 1.2 mph 1.2 mph 70 % 0.00 in
00:25 63.3 °F 53.7 °F 29.90 in Calm   0.3 mph 71 % 0.00 in
00:30 63.1 °F 53.5 °F 29.91 in Calm     71 % 0.00 in
00:35 63.0 °F 53.8 °F 29.92 in West 1.2 mph   72 % 0.00 in
00:40 63.0 °F 54.2 °F 29.90 in Calm     73 % 0.00 in
00:45 63.0 °F 54.6 °F 29.90 in SSE 1.2 mph   74 % 0.00 in
00:51 62.9 °F 54.5 °F 29.91 in North 2.0 mph 2.0 mph 74 % 0.00 in
00:56 62.9 °F 54.5 °F 29.91 in North 3.5 mph 3.5 mph 74 % 0.00 in
01:01 63.1 °F 54.3 °F 29.91 in West 3.5 mph 3.5 mph 73 % 0.00 in
01:06 63.2 °F 54.4 °F 29.90 in NNW 1.2 mph 1.2 mph 73 % 0.00 in
01:11 63.1 °F 54.3 °F 29.90 in NNW 1.2 mph 1.2 mph 73 % 0.00 in
01:16 63.0 °F 54.2 °F 29.91 in Calm     73 % 0.00 in
01:17 63.0 °F 54.2 °F 29.91 in Calm     73 % 0.00 in
01:22 62.8 °F 54.0 °F 29.91 in South 1.2 mph 1.2 mph 73 % 0.00 in
01:32 62.8 °F 54.8 °F 29.91 in Calm     75 % 0.00 in
01:37 62.7 °F 55.0 °F 29.90 in SSW 1.0 mph 1.0 mph 76 % 0.00 in
01:42 62.8 °F 55.1 °F 29.91 in Calm     76 % 0.00 in
01:47 62.7 °F 55.0 °F 29.93 in South 2.3 mph 2.3 mph 76 % 0.00 in
01:52 62.8 °F 55.1 °F 29.92 in Calm   0.1 mph 76 % 0.00 in
01:57 63.0 °F 55.3 °F 29.93 in WNW 3.5 mph 3.5 mph 76 % 0.00 in
02:02 63.1 °F 56.1 °F 29.93 in North 3.5 mph 3.5 mph 78 % 0.00 in
02:07 63.0 °F 56.7 °F 29.94 in NW 3.5 mph 3.5 mph 80 % 0.00 in
02:12 62.6 °F 57.0 °F 29.94 in North 1.2 mph 1.2 mph 82 % 0.00 in
02:17 62.0 °F 57.4 °F 29.94 in NW 2.3 mph 2.3 mph 85 % 0.00 in
02:22 61.5 °F 57.6 °F 29.93 in WNW 1.2 mph   87 % 0.00 in
02:27 61.1 °F 57.5 °F 29.93 in NNW 1.2 mph 1.2 mph 88 % 0.00 in
02:32 60.8 °F 57.8 °F 29.93 in North 2.0 mph 2.0 mph 90 % 0.00 in
02:37 60.6 °F 58.0 °F 29.94 in Calm     91 % 0.00 in
02:42 60.4 °F 57.8 °F 29.94 in NW 1.2 mph 1.2 mph 91 % 0.01 in
02:47 60.3 °F 58.0 °F 29.94 in Calm     92 % 0.02 in
02:52 60.2 °F 57.9 °F 29.94 in WNW 2.3 mph 2.3 mph 92 % 0.02 in
02:57 60.1 °F 58.1 °F 29.94 in Calm     93 % 0.02 in
03:02 60.0 °F 58.0 °F 29.93 in Calm     93 % 0.02 in
03:07 59.9 °F 57.9 °F 29.93 in Calm     93 % 0.02 in
03:12 59.9 °F 57.9 °F 29.93 in Calm     93 % 0.02 in
03:17 59.8 °F 58.1 °F 29.93 in SE 1.2 mph 1.2 mph 94 % 0.02 in
03:22 59.8 °F 58.1 °F 29.93 in Calm     94 % 0.02 in
03:27 59.7 °F 58.0 °F 29.93 in Calm   0.3 mph 94 % 0.02 in
03:32 59.6 °F 57.9 °F 29.93 in Calm     94 % 0.02 in
03:38 59.6 °F 57.9 °F 29.94 in SSE 1.2 mph   94 % 0.02 in
03:43 59.5 °F 57.8 °F 29.94 in Calm     94 % 0.01 in
03:48 59.5 °F 57.8 °F 29.94 in SSE 1.2 mph   94 % 0.00 in
03:53 59.4 °F 57.7 °F 29.94 in ESE 1.2 mph   94 % 0.00 in
03:58 59.3 °F 57.6 °F 29.94 in SE 2.3 mph 2.3 mph 94 % 0.00 in
04:03 59.2 °F 57.8 °F 29.94 in SSE 1.2 mph 1.2 mph 95 % 0.01 in
04:08 59.2 °F 57.8 °F 29.95 in SE 1.2 mph   95 % 0.01 in
04:13 59.0 °F 57.6 °F 29.95 in NNE 2.3 mph 2.3 mph 95 % 0.01 in
04:18 58.7 °F 57.0 °F 29.96 in NNW 5.8 mph 5.8 mph 94 % 0.01 in
04:23 57.6 °F 55.3 °F 29.96 in NW 3.5 mph 3.5 mph 92 % 0.01 in
04:28 56.7 °F 54.1 °F 29.96 in NW 3.5 mph 3.5 mph 91 % 0.01 in
04:33 56.2 °F 53.6 °F 29.97 in WNW 2.3 mph 2.3 mph 91 % 0.01 in
04:38 55.9 °F 53.3 °F 29.97 in NNW 2.3 mph 2.3 mph 91 % 0.01 in
04:43 55.6 °F 53.0 °F 29.97 in NW 2.3 mph 2.3 mph 91 % 0.01 in
04:48 55.2 °F 52.6 °F 29.97 in WNW 2.3 mph 2.3 mph 91 % 0.01 in
04:53 55.1 °F 52.5 °F 29.98 in NW 1.2 mph 1.2 mph 91 % 0.01 in
04:58 55.0 °F 52.7 °F 29.98 in Calm     92 % 0.00 in
05:03 54.8 °F 52.2 °F 29.98 in Calm     91 % 0.00 in
05:08 54.6 °F 52.3 °F 29.98 in Calm     92 % 0.00 in
05:13 54.5 °F 51.9 °F 29.99 in NW 2.3 mph 2.3 mph 91 % 0.00 in
05:18 54.4 °F 51.8 °F 29.98 in NW 1.2 mph   91 % 0.00 in
05:23 54.5 °F 51.6 °F 29.99 in WNW 1.2 mph 1.2 mph 90 % 0.00 in
05:28 54.6 °F 51.4 °F 29.99 in WNW 1.2 mph 1.2 mph 89 % 0.00 in
05:33 54.6 °F 51.4 °F 30.00 in WNW 1.2 mph 1.2 mph 89 % 0.00 in
05:38 54.7 °F 51.5 °F 30.00 in NW 2.3 mph 2.3 mph 89 % 0.00 in
05:43 54.8 °F 51.6 °F 30.00 in NW 1.2 mph 1.2 mph 89 % 0.00 in
05:48 54.9 °F 51.7 °F 30.01 in WNW 3.0 mph 3.0 mph 89 % 0.00 in
05:53 55.0 °F 51.5 °F 30.01 in NW 3.5 mph 3.5 mph 88 % 0.00 in
05:58 55.1 °F 51.6 °F 30.02 in NW 3.0 mph 3.0 mph 88 % 0.00 in
06:03 55.2 °F 51.1 °F 30.02 in NW 6.0 mph 6.0 mph 86 % 0.00 in
06:08 55.3 °F 51.2 °F 30.02 in WNW 3.5 mph 3.5 mph 86 % 0.00 in
06:13 55.2 °F 51.1 °F 30.03 in NW 3.5 mph 3.5 mph 86 % 0.00 in
06:18 55.1 °F 50.7 °F 30.03 in NW 5.8 mph 5.8 mph 85 % 0.00 in
06:23 55.1 °F 50.7 °F 30.03 in West 10.4 mph 10.4 mph 85 % 0.00 in
06:28 54.6 °F 50.5 °F 30.04 in WNW 6.9 mph 6.9 mph 86 % 0.00 in
06:33 53.8 °F 49.7 °F 30.04 in WNW 5.8 mph 5.8 mph 86 % 0.00 in
06:38 53.4 °F 49.9 °F 30.04 in North 4.6 mph 4.6 mph 88 % 0.00 in
06:43 53.1 °F 49.9 °F 30.04 in NW 5.8 mph 5.8 mph 89 % 0.00 in
06:48 52.8 °F 49.9 °F 30.05 in NW 5.8 mph 5.8 mph 90 % 0.00 in
06:53 52.4 °F 49.6 °F 30.05 in WNW 5.0 mph 5.0 mph 90 % 0.00 in
06:58 52.1 °F 49.0 °F 30.05 in NNW 3.5 mph 3.5 mph 89 % 0.00 in
07:03 51.7 °F 48.3 °F 30.05 in NW 4.6 mph 4.6 mph 88 % 0.01 in
07:08 51.6 °F 48.2 °F 30.05 in NW 3.5 mph 3.8 mph 88 % 0.01 in
07:13 51.5 °F 48.1 °F 30.05 in NNE 3.5 mph 4.2 mph 88 % 0.01 in
07:18 51.6 °F 48.2 °F 30.06 in NNW 6.9 mph 6.9 mph 88 % 0.01 in
07:23 51.5 °F 48.1 °F 30.07 in NNE 4.0 mph 4.0 mph 88 % 0.01 in
07:25 51.5 °F 48.4 °F 30.07 in NNW 4.6 mph 4.6 mph 89 % 0.01 in
07:30 51.4 °F 48.6 °F 30.08 in NW 3.5 mph 3.5 mph 90 % 0.01 in
07:36 51.3 °F 48.5 °F 30.08 in NW 5.8 mph 5.8 mph 90 % 0.01 in
07:41 51.2 °F 48.7 °F 30.08 in NW 6.0 mph 6.0 mph 91 % 0.02 in
07:46 50.9 °F 48.4 °F 30.08 in NW 3.5 mph 3.5 mph 91 % 0.02 in
07:51 50.7 °F 48.2 °F 30.08 in NW 3.5 mph 3.5 mph 91 % 0.03 in
07:56 50.6 °F 48.1 °F 30.08 in NW 4.6 mph 4.6 mph 91 % 0.04 in
08:01 50.5 °F 48.3 °F 30.08 in WNW 6.9 mph 6.9 mph 92 % 0.05 in
08:06 50.4 °F 48.2 °F 30.08 in NW 3.5 mph 3.5 mph 92 % 0.04 in
08:11 50.3 °F 48.1 °F 30.08 in NNW 3.5 mph 3.5 mph 92 % 0.05 in
08:16 50.3 °F 48.1 °F 30.09 in WNW 2.3 mph 2.3 mph 92 % 0.06 in
08:21 50.3 °F 48.4 °F 30.09 in NW 2.3 mph 2.3 mph 93 % 0.07 in
08:26 50.3 °F 48.4 °F 30.08 in West 3.5 mph 3.5 mph 93 % 0.07 in
08:31 50.3 °F 48.4 °F 30.08 in WNW 2.3 mph 2.3 mph 93 % 0.07 in
08:36 50.4 °F 48.2 °F 30.09 in NW 3.5 mph 3.5 mph 92 % 0.07 in
08:41 50.4 °F 48.2 °F 30.09 in NNW 3.0 mph 3.0 mph 92 % 0.06 in
08:46 50.5 °F 48.3 °F 30.10 in NW 1.2 mph 1.2 mph 92 % 0.06 in
08:51 50.6 °F 48.4 °F 30.10 in NW 3.5 mph 3.5 mph 92 % 0.05 in
08:56 50.7 °F 48.5 °F 30.11 in NNW 2.3 mph 2.3 mph 92 % 0.04 in
08:58 50.7 °F 48.5 °F 30.11 in NNW 2.3 mph 2.3 mph 92 % 0.03 in
09:03 50.8 °F 48.3 °F 30.12 in NW 2.3 mph   91 % 0.03 in
09:08 51.2 °F 48.7 °F 30.12 in NNE 3.0 mph 3.0 mph 91 % 0.02 in
09:13 52.0 °F 49.5 °F 30.12 in NW 2.3 mph 2.3 mph 91 % 0.01 in
09:18 52.5 °F 49.7 °F 30.12 in NW 1.2 mph 1.2 mph 90 % 0.00 in
09:23 53.1 °F 49.9 °F 30.12 in North 1.2 mph 1.2 mph 89 % 0.00 in
09:28 53.7 °F 50.2 °F 30.12 in WNW 3.0 mph 3.0 mph 88 % 0.00 in
09:33 54.1 °F 50.0 °F 30.12 in WNW 2.3 mph 2.3 mph 86 % 0.00 in
09:38 54.4 °F 49.3 °F 30.12 in NW 3.5 mph 3.5 mph 83 % 0.00 in
09:43 54.8 °F 49.4 °F 30.13 in WNW 3.5 mph 3.5 mph 82 % 0.00 in
09:48 55.2 °F 47.8 °F 30.13 in WNW 3.5 mph 3.5 mph 76 % 0.00 in
09:53 55.4 °F 47.2 °F 30.13 in NW 3.5 mph 3.5 mph 74 % 0.00 in
09:58 55.8 °F 47.6 °F 30.13 in NW 3.0 mph 3.0 mph 74 % 0.00 in
10:03 56.2 °F 48.0 °F 30.12 in NNW 2.0 mph 2.0 mph 74 % 0.00 in
10:08 56.4 °F 47.1 °F 30.12 in NW 6.9 mph 6.9 mph 71 % 0.00 in
10:13 56.5 °F 46.8 °F 30.12 in NNE 3.5 mph 3.5 mph 70 % 0.00 in
10:18 56.8 °F 47.5 °F 30.12 in NW 3.5 mph 3.5 mph 71 % 0.00 in
10:23 57.1 °F 47.4 °F 30.12 in WNW 3.5 mph 3.5 mph 70 % 0.00 in
10:28 57.4 °F 46.9 °F 30.11 in NW 3.5 mph 3.5 mph 68 % 0.00 in
10:33 57.3 °F 47.2 °F 30.11 in NW 2.3 mph 2.3 mph 69 % 0.00 in
10:38 57.4 °F 46.5 °F 30.10 in NW 2.3 mph 2.3 mph 67 % 0.00 in
10:43 57.4 °F 44.9 °F 30.10 in NW 3.5 mph 3.5 mph 63 % 0.00 in
10:49 57.5 °F 45.8 °F 30.10 in NW 3.5 mph 3.5 mph 65 % 0.00 in
10:54 57.6 °F 46.3 °F 30.10 in West 3.5 mph 3.5 mph 66 % 0.00 in
10:59 57.8 °F 46.1 °F 30.10 in NW 5.8 mph 5.8 mph 65 % 0.00 in
11:04 57.8 °F 45.7 °F 30.10 in North 6.0 mph 6.0 mph 64 % 0.00 in
11:09 58.1 °F 46.4 °F 30.10 in WNW 4.6 mph 4.6 mph 65 % 0.00 in
11:14 58.3 °F 46.2 °F 30.09 in NW 3.5 mph 3.5 mph 64 % 0.00 in
11:19 58.4 °F 45.8 °F 30.09 in WNW 2.3 mph 2.3 mph 63 % 0.00 in
11:24 58.7 °F 46.5 °F 30.09 in West 5.0 mph 5.0 mph 64 % 0.00 in
11:29 58.6 °F 46.5 °F 30.09 in NW 9.0 mph 9.0 mph 64 % 0.00 in
11:34 59.0 °F 46.8 °F 30.09 in NW 3.5 mph 3.5 mph 64 % 0.00 in
11:39 59.1 °F 45.7 °F 30.09 in WNW 6.9 mph 6.9 mph 61 % 0.00 in
11:44 59.2 °F 46.2 °F 30.09 in NW 4.6 mph 4.6 mph 62 % 0.00 in
11:49 59.2 °F 45.8 °F 30.08 in NW 6.9 mph 6.9 mph 61 % 0.00 in
11:54 59.5 °F 45.6 °F 30.08 in NW 3.5 mph 3.5 mph 60 % 0.00 in
11:59 59.6 °F 46.1 °F 30.08 in NE 3.5 mph 3.5 mph 61 % 0.00 in
12:04 59.6 °F 45.7 °F 30.08 in WNW 6.9 mph 6.9 mph 60 % 0.00 in
12:09 59.3 °F 45.0 °F 30.08 in NNW 6.0 mph 6.0 mph 59 % 0.00 in
12:14 59.4 °F 44.6 °F 30.07 in WNW 6.9 mph 6.9 mph 58 % 0.00 in
12:19 59.2 °F 44.9 °F 30.07 in NW 4.6 mph 4.6 mph 59 % 0.00 in
12:24 59.2 °F 45.3 °F 30.07 in West 8.1 mph 8.1 mph 60 % 0.00 in
12:29 59.6 °F 45.2 °F 30.07 in NW 4.6 mph 4.6 mph 59 % 0.00 in
12:34 59.5 °F 45.2 °F 30.07 in NW 5.8 mph 5.8 mph 59 % 0.00 in
12:39 59.5 °F 45.2 °F 30.07 in WNW 7.0 mph 7.0 mph 59 % 0.00 in
12:44 59.2 °F 45.3 °F 30.07 in North 4.0 mph 4.0 mph 60 % 0.00 in
12:49 59.6 °F 45.2 °F 30.07 in West 9.0 mph 9.0 mph 59 % 0.00 in
12:54 59.7 °F 45.3 °F 30.07 in WNW 9.2 mph 9.2 mph 59 % 0.00 in
12:59 59.8 °F 45.0 °F 30.07 in North 5.8 mph 5.8 mph 58 % 0.00 in
13:04 59.8 °F 45.9 °F 30.07 in West 3.5 mph 3.5 mph 60 % 0.00 in
13:09 60.0 °F 44.7 °F 30.07 in NW 6.0 mph 6.0 mph 57 % 0.00 in
13:14 60.0 °F 45.2 °F 30.07 in NW 5.8 mph 5.8 mph 58 % 0.00 in
13:19 59.4 °F 45.1 °F 30.07 in NW 4.0 mph 4.0 mph 59 % 0.00 in
13:24 59.3 °F 45.8 °F 30.07 in WNW 5.8 mph 5.8 mph 61 % 0.00 in
13:29 59.2 °F 44.9 °F 30.07 in NE 8.1 mph 8.1 mph 59 % 0.00 in
13:34 59.5 °F 45.2 °F 30.07 in NW 4.0 mph 4.0 mph 59 % 0.00 in
13:39 59.5 °F 44.7 °F 30.07 in NW 4.0 mph 4.0 mph 58 % 0.00 in
13:44 59.0 °F 45.6 °F 30.07 in NW 3.5 mph 3.5 mph 61 % 0.00 in
13:49 59.7 °F 44.9 °F 30.07 in NNW 8.1 mph 8.1 mph 58 % 0.00 in
13:54 59.6 °F 44.3 °F 30.08 in WNW 8.1 mph 8.1 mph 57 % 0.00 in
13:59 59.0 °F 44.7 °F 30.08 in NW 4.6 mph 4.6 mph 59 % 0.00 in
14:04 58.8 °F 44.9 °F 30.07 in NW 3.5 mph 3.5 mph 60 % 0.00 in
14:09 58.5 °F 44.2 °F 30.07 in NNW 3.5 mph 3.5 mph 59 % 0.00 in
14:14 58.4 °F 44.1 °F 30.08 in NW 4.6 mph 4.6 mph 59 % 0.00 in
14:19 58.4 °F 45.0 °F 30.07 in NW 2.3 mph 2.3 mph 61 % 0.00 in
14:24 58.9 °F 44.6 °F 30.08 in NW 9.2 mph 9.2 mph 59 % 0.00 in
14:29 58.6 °F 44.3 °F 30.08 in NW 5.8 mph 5.8 mph 59 % 0.00 in
14:34 58.4 °F 44.1 °F 30.08 in WNW 3.5 mph 3.5 mph 59 % 0.00 in
14:39 58.2 °F 43.9 °F 30.08 in NW 4.6 mph 4.6 mph 59 % 0.00 in
14:40 58.2 °F 43.9 °F 30.08 in WNW 4.6 mph 4.6 mph 59 % 0.00 in
14:45 58.6 °F 44.3 °F 30.08 in North 3.0 mph 3.0 mph 59 % 0.00 in
14:50 59.1 °F 44.8 °F 30.08 in NW 8.1 mph 8.1 mph 59 % 0.00 in
14:55 59.0 °F 43.8 °F 30.08 in NW 4.6 mph 4.6 mph 57 % 0.00 in
15:00 58.4 °F 43.7 °F 30.07 in NW 3.5 mph 3.5 mph 58 % 0.00 in
15:05 58.0 °F 44.2 °F 30.07 in SE 1.2 mph 1.2 mph 60 % 0.00 in
15:10 58.0 °F 44.6 °F 30.08 in NW 2.3 mph 2.3 mph 61 % 0.00 in
15:15 58.2 °F 44.4 °F 30.08 in NW 2.3 mph 2.3 mph 60 % 0.00 in
15:20 58.2 °F 44.4 °F 30.08 in West 3.5 mph 3.5 mph 60 % 0.00 in
15:25 58.4 °F 43.7 °F 30.08 in NNW 3.5 mph 3.5 mph 58 % 0.00 in
15:30 58.4 °F 42.8 °F 30.07 in ENE 4.6 mph 4.6 mph 56 % 0.00 in
15:35 58.3 °F 43.1 °F 30.08 in NW 4.6 mph 4.6 mph 57 % 0.00 in
15:40 58.1 °F 42.5 °F 30.07 in WNW 3.5 mph 3.5 mph 56 % 0.00 in
15:45 58.1 °F 42.9 °F 30.07 in WNW 3.5 mph 3.5 mph 57 % 0.00 in
15:50 58.0 °F 42.8 °F 30.07 in NNW 3.5 mph 3.5 mph 57 % 0.00 in
15:55 57.8 °F 43.6 °F 30.07 in WNW 2.3 mph 2.3 mph 59 % 0.00 in
16:00 57.6 °F 43.4 °F 30.07 in NW 3.0 mph 3.0 mph 59 % 0.00 in
16:05 57.4 °F 43.6 °F 30.07 in NW 3.5 mph 3.5 mph 60 % 0.00 in
16:10 57.2 °F 43.0 °F 30.08 in NW 3.5 mph 3.5 mph 59 % 0.00 in
16:15 57.1 °F 42.9 °F 30.08 in WNW 1.2 mph 1.2 mph 59 % 0.00 in
16:20 56.8 °F 43.5 °F 30.08 in Calm     61 % 0.00 in
16:25 56.4 °F 43.5 °F 30.08 in Calm     62 % 0.00 in
16:30 56.0 °F 43.6 °F 30.08 in Calm     63 % 0.00 in
16:35 55.7 °F 43.7 °F 30.08 in WNW 1.2 mph   64 % 0.00 in
16:40 55.3 °F 43.7 °F 30.08 in Calm     65 % 0.00 in
16:45 54.9 °F 43.7 °F 30.09 in WNW 1.2 mph   66 % 0.00 in
16:50 54.5 °F 43.8 °F 30.09 in Calm     67 % 0.00 in
16:55 54.2 °F 43.9 °F 30.09 in Calm     68 % 0.00 in
17:00 53.9 °F 44.3 °F 30.09 in Calm     70 % 0.00 in
17:05 53.4 °F 43.9 °F 30.09 in Calm     70 % 0.00 in
17:10 53.0 °F 43.8 °F 30.10 in Calm     71 % 0.00 in
17:15 52.8 °F 44.0 °F 30.10 in Calm     72 % 0.00 in
17:16 52.7 °F 43.9 °F 30.10 in Calm     72 % 0.00 in
17:21 52.4 °F 43.6 °F 30.10 in Calm     72 % 0.00 in
17:26 52.2 °F 43.8 °F 30.10 in Calm     73 % 0.00 in
17:31 52.0 °F 44.0 °F 30.11 in Calm     74 % 0.00 in
17:36 51.6 °F 43.6 °F 30.11 in Calm     74 % 0.00 in
17:41 51.2 °F 43.9 °F 30.11 in Calm     76 % 0.00 in
17:46 51.0 °F 43.7 °F 30.11 in Calm     76 % 0.00 in
17:51 50.7 °F 43.8 °F 30.11 in Calm     77 % 0.00 in
17:56 50.5 °F 43.6 °F 30.11 in Calm     77 % 0.00 in
18:01 50.5 °F 43.6 °F 30.11 in Calm     77 % 0.00 in
18:06 50.5 °F 44.2 °F 30.11 in Calm     79 % 0.00 in
18:11 50.3 °F 44.4 °F 30.11 in Calm     80 % 0.00 in
18:16 50.0 °F 44.1 °F 30.11 in Calm     80 % 0.00 in
18:21 49.5 °F 43.9 °F 30.12 in Calm     81 % 0.00 in
18:26 49.0 °F 43.4 °F 30.12 in Calm     81 % 0.00 in
18:31 48.7 °F 43.8 °F 30.12 in Calm     83 % 0.00 in
18:36 48.3 °F 43.4 °F 30.12 in Calm     83 % 0.00 in
18:41 48.1 °F 43.5 °F 30.12 in Calm     84 % 0.00 in
18:46 47.8 °F 43.5 °F 30.12 in Calm     85 % 0.00 in
18:51 47.5 °F 43.2 °F 30.12 in Calm     85 % 0.00 in
18:52 47.5 °F 43.2 °F 30.12 in Calm     85 % 0.00 in
18:57 47.3 °F 43.3 °F 30.12 in Calm     86 % 0.00 in
19:02 47.4 °F 43.7 °F 30.12 in Calm     87 % 0.00 in
19:07 47.5 °F 43.8 °F 30.12 in Calm     87 % 0.00 in
19:12 47.3 °F 43.6 °F 30.12 in Calm     87 % 0.00 in
19:17 47.1 °F 43.4 °F 30.12 in Calm     87 % 0.00 in
19:19 47.0 °F 43.3 °F 30.12 in Calm     87 % 0.00 in
19:24 46.8 °F 43.4 °F 30.12 in Calm     88 % 0.00 in
19:29 46.8 °F 43.7 °F 30.12 in Calm     89 % 0.00 in
19:34 46.8 °F 43.7 °F 30.12 in Calm     89 % 0.00 in
19:39 46.7 °F 43.3 °F 30.12 in Calm     88 % 0.00 in
19:44 46.6 °F 43.2 °F 30.12 in Calm     88 % 0.00 in
19:49 46.4 °F 43.3 °F 30.12 in Calm     89 % 0.00 in
19:54 46.3 °F 43.2 °F 30.12 in Calm     89 % 0.00 in
19:59 46.0 °F 42.6 °F 30.12 in Calm     88 % 0.00 in
20:04 45.6 °F 42.3 °F 30.12 in Calm     88 % 0.00 in
20:09 45.3 °F 42.5 °F 30.12 in Calm     90 % 0.00 in
20:14 45.4 °F 42.9 °F 30.12 in Calm     91 % 0.00 in
20:20 45.6 °F 43.1 °F 30.12 in Calm     91 % 0.00 in
20:25 45.6 °F 42.8 °F 30.12 in Calm     90 % 0.00 in
20:30 45.6 °F 42.5 °F 30.13 in Calm     89 % 0.00 in
20:35 45.6 °F 42.5 °F 30.12 in Calm     89 % 0.00 in
20:40 45.3 °F 42.0 °F 30.13 in Calm     88 % 0.00 in
20:45 44.8 °F 41.5 °F 30.13 in Calm     88 % 0.00 in
20:50 44.4 °F 41.4 °F 30.13 in Calm     89 % 0.00 in
20:55 44.1 °F 41.1 °F 30.14 in Calm     89 % 0.00 in
21:00 43.9 °F 41.2 °F 30.14 in Calm     90 % 0.00 in
21:05 43.8 °F 41.1 °F 30.14 in Calm     90 % 0.00 in
21:08 43.8 °F 41.3 °F 30.14 in Calm     91 % 0.00 in
21:13 43.8 °F 41.3 °F 30.14 in Calm     91 % 0.00 in
21:18 43.7 °F 41.2 °F 30.14 in Calm     91 % 0.00 in
21:23 43.8 °F 41.6 °F 30.14 in Calm     92 % 0.00 in
21:28 43.7 °F 41.5 °F 30.14 in Calm     92 % 0.00 in
21:33 43.8 °F 41.6 °F 30.14 in Calm     92 % 0.00 in
21:38 44.1 °F 41.9 °F 30.14 in Calm     92 % 0.00 in
21:43 44.2 °F 42.0 °F 30.14 in Calm     92 % 0.00 in
21:48 44.2 °F 41.7 °F 30.15 in Calm     91 % 0.00 in
21:53 44.1 °F 41.6 °F 30.15 in Calm     91 % 0.00 in
Park Place, Exeter, Tulare County, California, USA
Compliments of Weather Underground - 2.75 mb